Time;durP1;ratioP1;P1;durP2;ratioP2;P2;SDS_P1;SDS_P2;PMS_P1;PMS_P2;Temp;Humidity;BMP_temperature;BMP_pressure;BME280_temperature;BME280_humidity;BME280_pressure;Samples;Min_cycle;Max_cycle;Signal;HPM_P1;HPM_P2
2023/05/30 00:00:45;;;;;;;10.80;6.40;;;17.70;49.10;;;;;;4985922;28;115530;-78
2023/05/30 00:03:12;;;;;;;8.88;5.60;;;17.70;49.50;;;;;;4999759;28;114650;-78
2023/05/30 00:05:39;;;;;;;11.07;6.15;;;17.70;49.50;;;;;;5000957;28;114258;-78
2023/05/30 00:08:07;;;;;;;9.70;6.30;;;17.70;49.50;;;;;;4979006;28;114704;-78
2023/05/30 00:10:34;;;;;;;12.25;6.70;;;17.70;49.50;;;;;;4996400;28;114981;-78
2023/05/30 00:13:02;;;;;;;12.02;6.93;;;17.70;49.70;;;;;;4996047;28;117161;-77
2023/05/30 00:15:31;;;;;;;10.13;6.72;;;17.80;49.60;;;;;;4997194;28;114404;-79
2023/05/30 00:18:00;;;;;;;9.95;6.82;;;17.70;49.60;;;;;;4984217;28;114502;-79
2023/05/30 00:20:29;;;;;;;10.20;6.43;;;17.70;49.60;;;;;;4961074;28;118042;-77
2023/05/30 00:23:00;;;;;;;10.55;6.80;;;17.70;49.80;;;;;;4996647;28;117541;-77
2023/05/30 00:25:27;;;;;;;9.82;6.85;;;17.70;49.70;;;;;;4964515;28;114278;-78
2023/05/30 00:27:55;;;;;;;11.13;6.75;;;17.70;49.70;;;;;;4981520;28;114283;-78
2023/05/30 00:30:22;;;;;;;10.38;6.20;;;17.70;49.60;;;;;;4989694;28;117396;-78
2023/05/30 00:32:50;;;;;;;14.30;8.23;;;17.70;49.70;;;;;;4969625;28;115977;-78
2023/05/30 00:35:17;;;;;;;7.93;6.05;;;17.70;49.40;;;;;;4983424;28;114242;-78
2023/05/30 00:37:44;;;;;;;11.43;6.28;;;17.60;49.90;;;;;;4985069;28;116878;-79
2023/05/30 00:40:11;;;;;;;11.75;6.40;;;17.60;50.00;;;;;;4982903;28;114864;-78
2023/05/30 00:42:39;;;;;;;9.77;6.28;;;17.60;49.90;;;;;;4999487;28;117954;-78
2023/05/30 00:45:07;;;;;;;10.23;7.18;;;17.60;49.90;;;;;;4984730;28;114579;-78
2023/05/30 00:47:35;;;;;;;11.43;7.43;;;17.60;50.10;;;;;;5021925;28;114539;-78
2023/05/30 00:50:03;;;;;;;14.40;7.28;;;17.60;49.70;;;;;;4975380;28;114445;-78
2023/05/30 00:52:30;;;;;;;8.70;6.13;;;17.50;49.80;;;;;;4999389;28;114768;-78
2023/05/30 00:55:02;;;;;;;11.35;6.72;;;17.50;50.10;;;;;;4950116;28;114404;-78
2023/05/30 00:57:33;;;;;;;10.43;6.90;;;17.40;50.20;;;;;;4998724;28;114280;-78
2023/05/30 01:00:03;;;;;;;8.38;5.93;;;17.50;50.20;;;;;;4982652;28;115510;-78
2023/05/30 01:02:34;;;;;;;9.43;6.68;;;17.50;50.20;;;;;;4980659;28;115113;-78
2023/05/30 01:05:02;;;;;;;9.85;6.05;;;17.50;50.10;;;;;;4983411;28;114508;-78
2023/05/30 01:07:29;;;;;;;11.95;6.72;;;17.50;50.10;;;;;;5009471;28;114168;-79
2023/05/30 01:09:57;;;;;;;9.73;6.60;;;17.50;50.20;;;;;;5001932;28;114990;-78
2023/05/30 01:13:01;;;;;;;10.45;6.25;;;17.40;50.00;;;;;;4985189;28;114737;-78
2023/05/30 01:15:39;;;;;;;11.30;6.20;;;17.50;49.80;;;;;;5019353;28;114258;-79
2023/05/30 01:18:23;;;;;;;11.75;6.57;;;17.40;50.20;;;;;;4969797;28;114391;-79
2023/05/30 01:20:53;;;;;;;9.32;6.00;;;17.30;50.40;;;;;;4969415;28;114972;-79
2023/05/30 01:23:50;;;;;;;11.07;6.72;;;17.30;50.50;;;;;;4985339;28;114627;-78
2023/05/30 01:26:32;;;;;;;12.95;6.53;;;17.30;50.50;;;;;;5002236;28;114473;-78
2023/05/30 01:29:02;;;;;;;10.15;5.97;;;17.30;50.30;;;;;;5003730;28;114478;-79
2023/05/30 01:31:30;;;;;;;9.50;6.47;;;17.30;50.60;;;;;;4964183;28;114823;-79
2023/05/30 01:33:57;;;;;;;9.05;5.78;;;17.40;50.50;;;;;;4983089;28;115043;-79
2023/05/30 01:36:27;;;;;;;11.35;6.22;;;17.40;50.50;;;;;;4992995;28;114512;-79
2023/05/30 01:38:55;;;;;;;8.68;6.15;;;17.40;50.40;;;;;;4983487;28;114329;-80
2023/05/30 01:41:57;;;;;;;12.32;6.00;;;17.40;50.40;;;;;;4984240;28;115630;-79
2023/05/30 01:44:51;;;;;;;10.02;6.15;;;17.30;50.30;;;;;;5002187;28;115179;-79
2023/05/30 01:47:57;;;;;;;11.95;6.32;;;17.30;50.70;;;;;;4965832;28;114469;-79
2023/05/30 01:50:32;;;;;;;11.13;6.22;;;17.30;50.40;;;;;;5001879;28;116171;-79
2023/05/30 01:53:00;;;;;;;9.18;6.25;;;17.20;50.70;;;;;;4985538;28;115340;-79
2023/05/30 01:55:27;;;;;;;10.10;6.40;;;17.20;50.50;;;;;;5001910;28;114992;-79
2023/05/30 01:57:55;;;;;;;9.35;6.07;;;17.30;50.60;;;;;;4985408;28;114210;-79
2023/05/30 02:00:25;;;;;;;11.55;6.85;;;17.30;50.60;;;;;;4986085;28;114698;-79
2023/05/30 02:02:53;;;;;;;9.20;6.25;;;17.30;50.00;;;;;;4984735;28;115030;-79
2023/05/30 02:05:20;;;;;;;11.32;6.32;;;17.30;50.50;;;;;;4952555;28;117854;-79
2023/05/30 02:07:47;;;;;;;10.95;7.20;;;17.30;50.30;;;;;;5002210;28;114251;-79
2023/05/30 02:10:15;;;;;;;13.35;7.60;;;17.40;49.80;;;;;;5001565;28;114518;-78
2023/05/30 02:12:49;;;;;;;10.45;6.40;;;17.30;49.50;;;;;;5000853;28;116095;-78
2023/05/30 02:15:16;;;;;;;9.02;5.80;;;17.10;50.60;;;;;;4984375;28;116482;-78
2023/05/30 02:17:43;;;;;;;11.07;5.82;;;17.10;50.90;;;;;;5003040;28;114393;-79
2023/05/30 02:20:11;;;;;;;10.25;6.65;;;17.10;51.10;;;;;;4991532;28;114311;-77
2023/05/30 02:22:38;;;;;;;10.82;5.78;;;17.20;51.00;;;;;;4981274;28;114854;-76
2023/05/30 02:25:11;;;;;;;10.02;6.38;;;17.30;51.00;;;;;;4982127;28;117412;-77
2023/05/30 02:27:39;;;;;;;9.57;5.95;;;17.30;50.90;;;;;;4981425;28;114232;-77
2023/05/30 02:30:07;;;;;;;10.10;6.43;;;17.30;50.90;;;;;;4982991;28;114654;-77
2023/05/30 02:32:36;;;;;;;10.40;6.22;;;17.30;50.50;;;;;;4998632;28;114910;-78
2023/05/30 02:35:03;;;;;;;11.73;6.13;;;17.30;50.60;;;;;;4972523;28;114570;-78
2023/05/30 02:37:34;;;;;;;10.95;6.85;;;17.40;50.60;;;;;;4975272;28;115074;-78
2023/05/30 02:40:01;;;;;;;9.88;6.15;;;17.40;50.40;;;;;;4983202;28;114360;-78
2023/05/30 02:42:30;;;;;;;9.40;5.93;;;17.40;50.50;;;;;;4981377;28;116930;-78
2023/05/30 02:44:57;;;;;;;10.05;5.90;;;17.40;50.50;;;;;;4994056;28;115155;-79
2023/05/30 02:47:24;;;;;;;11.70;6.82;;;17.30;50.70;;;;;;5001451;28;119113;-78
2023/05/30 02:49:52;;;;;;;10.13;6.47;;;17.40;50.30;;;;;;4983106;28;114281;-78
2023/05/30 02:52:19;;;;;;;9.00;5.85;;;17.40;50.50;;;;;;4980420;28;115558;-78
2023/05/30 02:54:53;;;;;;;;;;;17.40;50.60;;;;;;4981502;28;114597;-79
2023/05/30 02:57:36;;;;;;;9.80;5.97;;;17.30;50.00;;;;;;4981406;28;114613;-79
2023/05/30 03:00:09;;;;;;;8.88;6.30;;;17.30;50.80;;;;;;4964409;28;114560;-79
2023/05/30 03:02:37;;;;;;;10.38;7.25;;;17.30;50.80;;;;;;4980096;28;115162;-79
2023/05/30 03:05:09;;;;;;;10.30;6.35;;;17.30;50.40;;;;;;4980671;28;114591;-78
2023/05/30 03:07:36;;;;;;;9.77;6.57;;;17.30;50.70;;;;;;4992475;28;114629;-79
2023/05/30 03:10:05;;;;;;;10.88;6.70;;;17.30;50.70;;;;;;4984692;28;114578;-78
2023/05/30 03:12:32;;;;;;;8.57;6.07;;;17.30;50.30;;;;;;5017460;28;114895;-78
2023/05/30 03:15:00;;;;;;;12.23;6.93;;;17.30;50.70;;;;;;5001939;28;115864;-79
2023/05/30 03:17:28;;;;;;;10.07;6.65;;;17.30;50.40;;;;;;5002495;28;114381;-78
2023/05/30 03:19:55;;;;;;;7.97;5.97;;;17.30;50.40;;;;;;4989933;28;114763;-79
2023/05/30 03:22:23;;;;;;;11.80;6.13;;;17.30;50.50;;;;;;4996732;28;115534;-78
2023/05/30 03:24:50;;;;;;;9.95;6.45;;;17.40;50.60;;;;;;4982088;28;114837;-78
2023/05/30 03:27:17;;;;;;;8.48;5.72;;;17.40;50.20;;;;;;4981639;28;114347;-78
2023/05/30 03:29:48;;;;;;;9.80;6.40;;;17.40;50.60;;;;;;4981410;28;114633;-78
2023/05/30 03:32:15;;;;;;;11.00;6.03;;;17.40;50.50;;;;;;4996680;28;114964;-78
2023/05/30 03:34:45;;;;;;;10.27;6.22;;;17.50;50.20;;;;;;4984042;28;114746;-79
2023/05/30 03:37:16;;;;;;;12.27;6.83;;;17.50;50.30;;;;;;5000982;28;114476;-79
2023/05/30 03:39:43;;;;;;;10.05;6.80;;;17.50;50.30;;;;;;5000841;28;114310;-79
2023/05/30 03:42:10;;;;;;;11.25;6.40;;;17.50;50.20;;;;;;5000190;28;116791;-79
2023/05/30 03:44:37;;;;;;;10.35;6.40;;;17.50;50.20;;;;;;4991412;28;115293;-78
2023/05/30 03:47:06;;;;;;;10.05;7.13;;;17.50;50.20;;;;;;4981955;28;114347;-78
2023/05/30 03:49:34;;;;;;;10.60;6.60;;;17.50;50.30;;;;;;4997209;28;114519;-78
2023/05/30 03:52:01;;;;;;;11.80;6.93;;;17.50;50.30;;;;;;4976343;28;114903;-78
2023/05/30 03:54:29;;;;;;;9.50;6.75;;;17.60;50.00;;;;;;4980755;28;117182;-78
2023/05/30 03:56:57;;;;;;;10.63;6.47;;;17.50;50.30;;;;;;4982096;28;114282;-78
2023/05/30 03:59:24;;;;;;;10.98;7.03;;;17.50;50.30;;;;;;4980671;28;114237;-78
2023/05/30 04:01:51;;;;;;;11.02;7.63;;;17.60;50.30;;;;;;4979683;28;115839;-79
2023/05/30 04:04:20;;;;;;;10.23;6.90;;;17.60;49.50;;;;;;4981444;28;114469;-78
2023/05/30 04:06:47;;;;;;;11.88;7.63;;;17.50;50.20;;;;;;4985314;28;114515;-79
2023/05/30 04:09:15;;;;;;;11.48;7.70;;;17.60;49.80;;;;;;4984539;28;114205;-78
2023/05/30 04:11:42;;;;;;;11.80;7.10;;;17.60;50.00;;;;;;4978958;28;114908;-79
2023/05/30 04:14:09;;;;;;;11.48;7.43;;;17.60;50.20;;;;;;4983298;28;114631;-79
2023/05/30 04:16:36;;;;;;;11.50;7.38;;;17.70;49.90;;;;;;4999244;28;114600;-79
2023/05/30 04:19:04;;;;;;;11.10;7.22;;;17.60;49.80;;;;;;4983496;28;114807;-79
2023/05/30 04:21:32;;;;;;;12.20;7.20;;;17.60;50.20;;;;;;4999826;28;115047;-79
2023/05/30 04:24:00;;;;;;;10.00;7.18;;;17.60;50.00;;;;;;4963608;28;117237;-79
2023/05/30 04:26:27;;;;;;;12.48;7.13;;;17.60;50.10;;;;;;4965604;28;114673;-78
2023/05/30 04:28:57;;;;;;;12.32;7.75;;;17.70;50.10;;;;;;4967527;28;114658;-79
2023/05/30 04:31:24;;;;;;;11.85;6.82;;;17.70;49.90;;;;;;4965337;28;114927;-78
2023/05/30 04:33:53;;;;;;;11.63;7.13;;;17.80;49.90;;;;;;4999775;28;115232;-79
2023/05/30 04:36:21;;;;;;;11.48;7.07;;;17.70;49.70;;;;;;4983247;28;114187;-78
2023/05/30 04:38:49;;;;;;;13.23;7.72;;;17.70;49.80;;;;;;4987453;28;114373;-78
2023/05/30 04:41:20;;;;;;;10.73;7.05;;;17.80;49.40;;;;;;4988435;28;114395;-79
2023/05/30 04:43:59;;;;;;;15.90;7.68;;;17.80;49.60;;;;;;4982613;28;114619;-78
2023/05/30 04:46:27;;;;;;;11.50;7.50;;;17.80;49.20;;;;;;5009854;28;115372;-79
2023/05/30 04:49:00;;;;;;;9.70;7.10;;;17.80;49.50;;;;;;4970925;28;114358;-78
2023/05/30 04:51:29;;;;;;;14.07;8.07;;;17.80;49.60;;;;;;4970646;28;116571;-79
2023/05/30 04:53:56;;;;;;;10.82;7.10;;;17.90;49.00;;;;;;5002268;28;114777;-79
2023/05/30 04:56:23;;;;;;;12.07;6.57;;;17.90;49.40;;;;;;5004344;28;114474;-78
2023/05/30 04:58:53;;;;;;;10.02;6.82;;;17.90;49.40;;;;;;5003463;28;114361;-79
2023/05/30 05:01:23;;;;;;;12.07;7.03;;;18.00;49.40;;;;;;4977840;28;115700;-79
2023/05/30 05:03:51;;;;;;;14.63;7.55;;;18.00;49.30;;;;;;4982687;28;114613;-78
2023/05/30 05:06:19;;;;;;;12.10;7.10;;;18.00;49.10;;;;;;4982605;28;114193;-78
2023/05/30 05:08:48;;;;;;;13.68;7.55;;;18.00;49.30;;;;;;4982938;28;114912;-78
2023/05/30 05:11:15;;;;;;;12.13;7.50;;;18.10;49.10;;;;;;5001907;28;115124;-78
2023/05/30 05:13:43;;;;;;;11.32;6.93;;;18.10;48.90;;;;;;5003542;28;114704;-78
2023/05/30 05:16:10;;;;;;;11.73;8.13;;;18.20;49.00;;;;;;5002278;28;114687;-78
2023/05/30 05:18:37;;;;;;;16.38;8.77;;;18.20;48.80;;;;;;5003565;28;114689;-78
2023/05/30 05:21:06;;;;;;;12.65;8.05;;;18.20;48.60;;;;;;5003291;28;115070;-78
2023/05/30 05:23:34;;;;;;;11.05;7.60;;;18.30;48.60;;;;;;5003637;28;115088;-78
2023/05/30 05:26:01;;;;;;;12.55;7.10;;;18.20;48.60;;;;;;4981418;28;114506;-77
2023/05/30 05:28:28;;;;;;;17.83;9.30;;;18.20;48.70;;;;;;4999080;28;114545;-79
2023/05/30 05:30:56;;;;;;;17.70;8.77;;;18.10;48.70;;;;;;4981636;28;116273;-78
2023/05/30 05:33:23;;;;;;;12.75;7.70;;;18.10;48.70;;;;;;5000328;28;114697;-80
2023/05/30 05:35:51;;;;;;;32.03;9.25;;;18.00;48.90;;;;;;5003389;28;114220;-77
2023/05/30 05:38:18;;;;;;;15.25;8.27;;;18.10;48.80;;;;;;4986147;28;114405;-78
2023/05/30 05:40:46;;;;;;;14.80;6.93;;;18.20;48.70;;;;;;4997698;28;116416;-77
2023/05/30 05:43:13;;;;;;;12.27;7.63;;;18.10;48.90;;;;;;4982948;28;114599;-77
2023/05/30 05:45:40;;;;;;;12.70;8.25;;;18.20;49.20;;;;;;4982344;28;114677;-77
2023/05/30 05:48:08;;;;;;;16.23;8.98;;;18.30;49.10;;;;;;4999315;28;114250;-78
2023/05/30 05:50:35;;;;;;;11.65;7.85;;;18.40;48.80;;;;;;5015056;28;115457;-78
2023/05/30 05:53:02;;;;;;;12.23;8.73;;;18.50;48.60;;;;;;5002297;28;115214;-78
2023/05/30 05:55:30;;;;;;;15.40;8.82;;;18.50;48.60;;;;;;5001669;28;114239;-78
2023/05/30 05:57:57;;;;;;;14.50;8.50;;;18.40;48.60;;;;;;5002175;28;114550;-78
2023/05/30 06:00:25;;;;;;;12.90;8.90;;;18.30;48.90;;;;;;5001042;28;114972;-78
2023/05/30 06:02:52;;;;;;;11.32;8.25;;;18.30;48.90;;;;;;5002800;28;114617;-78
2023/05/30 06:05:19;;;;;;;10.35;6.75;;;18.20;49.10;;;;;;5003917;28;114162;-78
2023/05/30 06:07:47;;;;;;;16.45;9.02;;;18.30;49.00;;;;;;5002036;28;114432;-79
2023/05/30 06:10:14;;;;;;;12.50;8.77;;;18.30;48.90;;;;;;5000932;28;115160;-80
2023/05/30 06:12:41;;;;;;;13.05;8.88;;;18.30;48.90;;;;;;4985614;28;115172;-79
2023/05/30 06:15:09;;;;;;;22.30;9.85;;;18.20;49.20;;;;;;5003554;28;114157;-79
2023/05/30 06:17:36;;;;;;;12.00;7.72;;;18.10;49.60;;;;;;5003049;28;114301;-79
2023/05/30 06:20:04;;;;;;;14.65;9.90;;;17.90;49.60;;;;;;4999887;28;115711;-78
2023/05/30 06:22:31;;;;;;;15.90;9.73;;;17.90;50.00;;;;;;5002357;28;115874;-78
2023/05/30 06:24:58;;;;;;;12.73;9.20;;;17.90;50.00;;;;;;5002072;28;114572;-79
2023/05/30 06:27:25;;;;;;;14.75;8.70;;;18.10;49.90;;;;;;5002495;28;114269;-77
2023/05/30 06:29:53;;;;;;;15.48;8.23;;;18.20;49.90;;;;;;4999835;28;114941;-78
2023/05/30 06:32:21;;;;;;;15.23;9.25;;;18.30;49.40;;;;;;4997535;28;114804;-79
2023/05/30 06:34:48;;;;;;;15.57;9.15;;;18.40;49.60;;;;;;4983778;28;115766;-79
2023/05/30 06:37:15;;;;;;;16.05;10.20;;;18.40;49.50;;;;;;4990197;28;114575;-80
2023/05/30 06:39:42;;;;;;;15.73;10.77;;;18.50;49.40;;;;;;4982470;28;114552;-78
2023/05/30 06:42:09;;;;;;;16.85;9.27;;;18.50;49.50;;;;;;4981874;28;114732;-78
2023/05/30 06:44:42;;;;;;;17.48;9.10;;;18.40;49.40;;;;;;4981184;28;114317;-78
2023/05/30 06:47:09;;;;;;;14.65;9.02;;;18.50;49.40;;;;;;4982979;28;114363;-78
2023/05/30 06:49:36;;;;;;;14.20;8.65;;;18.70;49.20;;;;;;4981452;28;116536;-79
2023/05/30 06:52:04;;;;;;;15.68;9.23;;;18.80;49.00;;;;;;4980557;28;114700;-79
2023/05/30 06:54:32;;;;;;;18.92;10.15;;;18.80;49.00;;;;;;4994562;28;114208;-79
2023/05/30 06:57:03;;;;;;;13.55;8.90;;;18.80;49.00;;;;;;5017983;28;114542;-78
2023/05/30 06:59:33;;;;;;;14.40;9.20;;;18.90;49.00;;;;;;4999486;28;117142;-78
2023/05/30 07:02:02;;;;;;;15.13;9.20;;;19.00;48.60;;;;;;5000718;28;116202;-78
2023/05/30 07:04:30;;;;;;;12.30;8.30;;;19.00;48.90;;;;;;5002337;28;118324;-78
2023/05/30 07:06:57;;;;;;;15.32;8.95;;;18.90;48.90;;;;;;5002056;28;114672;-79
2023/05/30 07:09:26;;;;;;;13.43;8.90;;;18.90;49.20;;;;;;4978439;28;114989;-79
2023/05/30 07:11:53;;;;;;;13.70;8.60;;;18.90;49.30;;;;;;4985005;28;114618;-79
2023/05/30 07:14:21;;;;;;;17.77;9.88;;;18.90;49.00;;;;;;5002271;28;114373;-79
2023/05/30 07:16:48;;;;;;;14.13;8.25;;;18.90;49.10;;;;;;5000638;28;114704;-79
2023/05/30 07:19:15;;;;;;;18.02;9.52;;;18.80;49.20;;;;;;4988471;28;114842;-79
2023/05/30 07:21:42;;;;;;;15.88;8.25;;;18.90;49.00;;;;;;4980225;28;114622;-79
2023/05/30 07:24:09;;;;;;;25.90;10.70;;;19.00;48.80;;;;;;4982228;28;114305;-79
2023/05/30 07:26:36;;;;;;;16.58;10.65;;;19.00;48.90;;;;;;4982245;28;114148;-79
2023/05/30 07:29:04;;;;;;;16.48;9.10;;;19.00;48.80;;;;;;4975510;28;115799;-79
2023/05/30 07:31:31;;;;;;;16.10;10.02;;;19.00;48.80;;;;;;4980505;28;114898;-79
2023/05/30 07:33:58;;;;;;;17.30;9.40;;;19.10;48.90;;;;;;4980368;28;114310;-79
2023/05/30 07:36:25;;;;;;;15.70;8.68;;;19.20;48.50;;;;;;4982033;28;114463;-79
2023/05/30 07:38:52;;;;;;;17.52;10.07;;;19.30;48.50;;;;;;4980225;28;114967;-77
2023/05/30 07:41:20;;;;;;;19.42;9.40;;;19.40;48.40;;;;;;4999521;28;116866;-77
2023/05/30 07:43:47;;;;;;;16.05;10.35;;;19.50;48.30;;;;;;4982975;28;114329;-78
2023/05/30 07:46:15;;;;;;;16.55;10.20;;;19.70;47.90;;;;;;4985064;28;114337;-78
2023/05/30 07:48:42;;;;;;;16.10;9.77;;;19.80;48.10;;;;;;4964275;28;117696;-78
2023/05/30 07:51:10;;;;;;;17.98;9.95;;;19.80;47.60;;;;;;4983550;28;114678;-78
2023/05/30 07:53:37;;;;;;;22.35;10.65;;;19.80;47.40;;;;;;4985512;28;115747;-78
2023/05/30 07:56:04;;;;;;;19.85;10.27;;;19.90;47.60;;;;;;4998730;28;114437;-78
2023/05/30 07:58:34;;;;;;;17.23;10.27;;;19.90;47.20;;;;;;5003215;28;114953;-78
2023/05/30 08:01:06;;;;;;;19.55;10.25;;;20.00;46.90;;;;;;4986743;28;117344;-78
2023/05/30 08:03:33;;;;;;;21.02;11.25;;;20.10;46.70;;;;;;4976241;28;114510;-78
2023/05/30 08:06:01;;;;;;;17.05;10.98;;;20.20;46.80;;;;;;4985414;28;114533;-78
2023/05/30 08:08:28;;;;;;;18.30;10.50;;;20.30;46.70;;;;;;5000216;28;114645;-78
2023/05/30 08:10:56;;;;;;;20.25;10.32;;;20.30;46.40;;;;;;4997334;28;115601;-78
2023/05/30 08:13:26;;;;;;;20.38;11.55;;;20.50;46.40;;;;;;5020452;28;114308;-78
2023/05/30 08:15:53;;;;;;;22.20;11.80;;;20.50;46.30;;;;;;5003940;28;114339;-78
2023/05/30 08:18:23;;;;;;;21.08;9.45;;;20.50;46.60;;;;;;5019238;28;114910;-78
2023/05/30 08:20:55;;;;;;;15.45;10.10;;;20.60;46.40;;;;;;5004024;28;114756;-79
2023/05/30 08:23:24;;;;;;;17.27;9.93;;;20.70;46.40;;;;;;5009044;27;114254;-78
2023/05/30 08:25:52;;;;;;;18.75;9.40;;;20.70;45.70;;;;;;5000320;28;114595;-79
2023/05/30 08:28:20;;;;;;;14.68;9.70;;;20.70;45.30;;;;;;4983102;28;115821;-79
2023/05/30 08:30:50;;;;;;;16.42;10.18;;;20.70;45.30;;;;;;4984393;28;115258;-79
2023/05/30 08:33:21;;;;;;;16.95;9.35;;;20.70;45.40;;;;;;4986111;28;114186;-79
2023/05/30 08:35:49;;;;;;;16.90;10.20;;;20.70;45.30;;;;;;4984709;28;114257;-78
2023/05/30 08:38:16;;;;;;;12.73;9.07;;;20.70;45.10;;;;;;4999451;28;114667;-79
2023/05/30 08:40:44;;;;;;;15.05;9.52;;;20.70;45.10;;;;;;5000177;28;114802;-79
2023/05/30 08:43:11;;;;;;;13.63;8.98;;;20.70;44.50;;;;;;4963796;28;114309;-78
2023/05/30 08:45:38;;;;;;;14.45;8.80;;;20.80;44.60;;;;;;4984514;28;114319;-79
2023/05/30 08:48:10;;;;;;;20.77;10.65;;;20.80;45.10;;;;;;4999088;28;114780;-79
2023/05/30 08:50:37;;;;;;;16.20;9.88;;;21.00;44.90;;;;;;4983051;28;116672;-78
2023/05/30 08:53:19;;;;;;;17.63;9.75;;;20.90;44.70;;;;;;4966435;28;114402;-79
2023/05/30 08:55:52;;;;;;;16.73;9.63;;;21.00;45.30;;;;;;4996928;28;114283;-78
2023/05/30 08:58:44;;;;;;;23.60;9.80;;;21.00;44.90;;;;;;4980149;28;116735;-79
2023/05/30 09:01:11;;;;;;;23.10;10.68;;;21.00;44.90;;;;;;4985003;28;114801;-79
2023/05/30 09:03:42;;;;;;;19.27;9.45;;;21.10;44.10;;;;;;4983605;28;114391;-78
2023/05/30 09:06:10;;;;;;;18.35;9.60;;;21.20;44.40;;;;;;4965579;28;114245;-79
2023/05/30 09:08:37;;;;;;;15.85;8.40;;;21.30;44.00;;;;;;4982461;28;117772;-78
2023/05/30 09:11:04;;;;;;;16.67;10.07;;;21.30;43.70;;;;;;4982455;28;117959;-78
2023/05/30 09:13:31;;;;;;;15.40;9.32;;;21.40;44.10;;;;;;4984159;28;114240;-79
2023/05/30 09:16:00;;;;;;;15.60;9.20;;;21.50;43.30;;;;;;4984423;28;114301;-78
2023/05/30 09:18:32;;;;;;;18.80;9.18;;;21.50;43.70;;;;;;4999616;28;115363;-78
2023/05/30 09:21:00;;;;;;;14.55;9.48;;;21.70;43.40;;;;;;5002091;28;115470;-78
2023/05/30 09:23:31;;;;;;;19.25;8.82;;;21.80;43.30;;;;;;5002807;28;114590;-78
2023/05/30 09:26:00;;;;;;;14.55;9.15;;;21.80;42.70;;;;;;5003633;28;114591;-79
2023/05/30 09:28:28;;;;;;;17.73;8.48;;;21.80;42.40;;;;;;4985799;28;114940;-79
2023/05/30 09:30:57;;;;;;;16.30;8.75;;;21.80;42.70;;;;;;4986322;28;114799;-79
2023/05/30 09:33:41;;;;;;;14.07;8.30;;;21.80;43.00;;;;;;5003097;28;114537;-79
2023/05/30 09:36:08;;;;;;;21.77;8.52;;;22.00;42.80;;;;;;5002761;28;114560;-79
2023/05/30 09:38:36;;;;;;;15.25;7.95;;;22.00;41.80;;;;;;5002181;28;115525;-78
2023/05/30 09:41:03;;;;;;;13.32;8.07;;;21.90;41.70;;;;;;5003019;28;114739;-79
2023/05/30 09:43:31;;;;;;;15.65;8.18;;;21.80;41.40;;;;;;5002802;28;114243;-78
2023/05/30 09:46:03;;;;;;;11.98;8.10;;;21.70;41.80;;;;;;5003696;28;114279;-79
2023/05/30 09:48:31;;;;;;;13.05;8.98;;;21.70;41.90;;;;;;5003056;28;116019;-79
2023/05/30 09:51:02;;;;;;;14.52;8.65;;;21.60;41.90;;;;;;5002410;28;114637;-79
2023/05/30 09:53:30;;;;;;;13.35;8.65;;;21.60;42.20;;;;;;4978403;28;119868;-78
2023/05/30 09:55:58;;;;;;;13.32;8.02;;;21.60;42.40;;;;;;4999489;28;118450;-78
2023/05/30 09:58:25;;;;;;;13.38;7.47;;;21.60;42.50;;;;;;4983125;28;115768;-79
2023/05/30 10:00:53;;;;;;;12.68;7.65;;;21.50;42.40;;;;;;4983064;28;114547;-79
2023/05/30 10:03:21;;;;;;;12.98;7.05;;;21.40;42.70;;;;;;4997629;28;114282;-78
2023/05/30 10:05:48;;;;;;;13.00;7.03;;;21.30;42.70;;;;;;4998575;28;114312;-79
2023/05/30 10:08:16;;;;;;;12.98;6.57;;;21.30;41.90;;;;;;4982605;28;115147;-79
2023/05/30 10:10:43;;;;;;;14.18;7.43;;;21.10;42.00;;;;;;4981119;28;115169;-79
2023/05/30 10:13:11;;;;;;;10.98;7.40;;;21.00;42.20;;;;;;4984452;28;114295;-79
2023/05/30 10:15:39;;;;;;;10.88;7.38;;;20.80;42.20;;;;;;5001031;28;114258;-79
2023/05/30 10:18:10;;;;;;;11.85;7.10;;;20.80;42.30;;;;;;5001222;28;115020;-78
2023/05/30 10:20:38;;;;;;;13.20;6.90;;;20.80;42.50;;;;;;4975435;28;115775;-78
2023/05/30 10:23:08;;;;;;;11.18;6.60;;;20.70;42.10;;;;;;5001949;28;114588;-78
2023/05/30 10:25:36;;;;;;;10.93;6.93;;;20.70;42.20;;;;;;5001280;28;114575;-78
2023/05/30 10:28:06;;;;;;;9.30;6.43;;;20.60;42.40;;;;;;5000488;28;115000;-78
2023/05/30 10:30:33;;;;;;;12.00;6.80;;;20.60;42.50;;;;;;5000618;28;116308;-79
2023/05/30 10:33:06;;;;;;;12.90;6.45;;;20.60;42.50;;;;;;4987264;28;114509;-78
2023/05/30 10:35:35;;;;;;;14.98;6.60;;;20.60;42.40;;;;;;5001653;28;116014;-79
2023/05/30 10:38:04;;;;;;;13.50;7.30;;;20.60;42.40;;;;;;5000476;28;115094;-79
2023/05/30 10:40:50;;;;;;;13.77;6.85;;;20.70;42.00;;;;;;4984899;28;114654;-79
2023/05/30 10:43:25;;;;;;;9.18;5.50;;;20.80;41.50;;;;;;5002535;28;114480;-79
2023/05/30 10:46:21;;;;;;;9.43;6.45;;;20.90;40.90;;;;;;5002203;28;114241;-78
2023/05/30 10:48:53;;;;;;;11.15;6.95;;;21.00;41.60;;;;;;5000510;28;115039;-79
2023/05/30 10:51:21;;;;;;;10.75;5.82;;;21.20;40.90;;;;;;5000501;28;114701;-79
2023/05/30 10:53:48;;;;;;;11.52;6.03;;;21.30;40.70;;;;;;4999706;28;114283;-79
2023/05/30 10:56:31;;;;;;;18.40;5.82;;;21.30;39.50;;;;;;4984937;28;114412;-79
2023/05/30 10:59:00;;;;;;;9.00;5.40;;;21.40;40.00;;;;;;4977790;28;114860;-79
2023/05/30 11:01:33;;;;;;;8.00;5.50;;;21.50;39.30;;;;;;4981606;28;115314;-79
2023/05/30 11:04:19;;;;;;;8.52;5.50;;;21.50;39.40;;;;;;4997953;28;114290;-79
2023/05/30 11:06:46;;;;;;;9.80;5.35;;;21.60;39.20;;;;;;4980865;28;114377;-79
2023/05/30 11:09:17;;;;;;;9.38;5.22;;;21.50;38.60;;;;;;5014081;28;115893;-79
2023/05/30 11:11:46;;;;;;;10.07;5.38;;;21.60;38.40;;;;;;5002089;28;114514;-79
2023/05/30 11:14:14;;;;;;;9.27;5.28;;;21.60;38.10;;;;;;5002443;28;114257;-79
2023/05/30 11:16:53;;;;;;;8.38;5.05;;;21.60;38.00;;;;;;5001385;28;114116;-79
2023/05/30 11:19:34;;;;;;;8.80;4.97;;;21.60;37.70;;;;;;5000128;28;116125;-79
2023/05/30 11:22:03;;;;;;;7.47;5.38;;;21.40;38.60;;;;;;4977594;28;114748;-78
2023/05/30 11:24:31;;;;;;;10.10;5.50;;;21.30;38.30;;;;;;4982443;28;114414;-78
2023/05/30 11:27:06;;;;;;;7.53;5.40;;;21.30;38.70;;;;;;4982865;28;114273;-78
2023/05/30 11:29:36;;;;;;;11.20;5.63;;;21.40;38.10;;;;;;4996847;28;116559;-79
2023/05/30 11:32:07;;;;;;;11.70;5.50;;;21.40;38.50;;;;;;4996970;28;114607;-79
2023/05/30 11:34:35;;;;;;;8.93;5.82;;;21.50;37.90;;;;;;4997510;28;114404;-79
2023/05/30 11:37:03;;;;;;;10.27;5.40;;;21.50;37.90;;;;;;4981434;28;115491;-79
2023/05/30 11:39:34;;;;;;;10.00;5.80;;;21.60;38.50;;;;;;4944352;28;116108;-79
2023/05/30 11:42:01;;;;;;;8.75;5.10;;;21.70;38.00;;;;;;4980220;28;114657;-80
2023/05/30 11:44:30;;;;;;;10.65;5.70;;;21.70;37.70;;;;;;4996768;28;114201;-78
2023/05/30 11:47:06;;;;;;;7.43;5.20;;;21.70;37.50;;;;;;4997338;28;114331;-79
2023/05/30 11:49:55;;;;;;;7.95;5.28;;;21.60;37.60;;;;;;4993525;28;114984;-79
2023/05/30 11:52:23;;;;;;;6.40;4.78;;;21.60;37.00;;;;;;4996386;28;115078;-78
2023/05/30 11:54:50;;;;;;;8.13;5.00;;;21.70;37.90;;;;;;4996977;28;114114;-78
2023/05/30 11:57:19;;;;;;;8.82;5.72;;;21.70;37.60;;;;;;4982271;28;114435;-78
2023/05/30 11:59:48;;;;;;;9.80;5.38;;;21.60;37.30;;;;;;4980917;28;115253;-79
2023/05/30 12:02:15;;;;;;;8.52;5.50;;;21.50;37.20;;;;;;4980643;28;114634;-78
2023/05/30 12:04:43;;;;;;;11.88;5.90;;;21.30;37.00;;;;;;4982119;28;114321;-78
2023/05/30 12:07:11;;;;;;;8.13;5.30;;;21.30;37.30;;;;;;4981802;28;114211;-78
2023/05/30 12:09:39;;;;;;;10.02;5.03;;;21.40;37.50;;;;;;4978843;28;115947;-78
2023/05/30 12:12:07;;;;;;;8.23;5.00;;;21.50;37.40;;;;;;4980864;28;115264;-79
2023/05/30 12:14:39;;;;;;;9.07;5.32;;;21.60;37.50;;;;;;4963913;28;114530;-79
2023/05/30 12:17:13;;;;;;;8.13;5.30;;;21.80;37.20;;;;;;4981854;28;114465;-79
2023/05/30 12:19:44;;;;;;;9.27;5.25;;;21.80;37.00;;;;;;4980214;28;115144;-79
2023/05/30 12:22:11;;;;;;;9.38;5.63;;;21.80;37.40;;;;;;4981375;28;114629;-79
2023/05/30 12:24:39;;;;;;;8.10;5.28;;;21.60;37.10;;;;;;4981457;28;114208;-79
2023/05/30 12:27:17;;;;;;;9.48;5.30;;;21.40;37.10;;;;;;4988264;28;114604;-79
2023/05/30 12:29:44;;;;;;;10.95;5.57;;;21.30;37.50;;;;;;4985912;28;114938;-78
2023/05/30 12:32:12;;;;;;;8.48;5.07;;;21.20;37.50;;;;;;5003808;28;114677;-78
2023/05/30 12:34:41;;;;;;;10.55;5.03;;;21.20;37.40;;;;;;4992270;28;114313;-78
2023/05/30 12:37:13;;;;;;;9.18;5.07;;;21.30;37.60;;;;;;4986097;28;114322;-78
2023/05/30 12:39:50;;;;;;;7.25;4.63;;;21.30;37.30;;;;;;5003374;28;114938;-79